Time;durP1;ratioP1;P1;durP2;ratioP2;P2;SDS_P1;SDS_P2;PMS_P1;PMS_P2;Temp;Humidity;BMP_temperature;BMP_pressure;BME280_temperature;BME280_humidity;BME280_pressure;Samples;Min_cycle;Max_cycle;Signal;HPM_P1;HPM_P2
2024/03/02 00:02:17;;;;;;;119.40;63.70;;;;;;;1.41;100.00;101571.52;109687;1250;62484;-72
2024/03/02 00:04:45;;;;;;;114.20;60.60;;;;;;;1.37;100.00;101570.67;109662;1251;72736;-71
2024/03/02 00:07:14;;;;;;;110.00;56.20;;;;;;;1.32;100.00;101565.55;109684;1250;59695;-71
2024/03/02 00:09:42;;;;;;;107.00;55.70;;;;;;;1.32;100.00;101564.86;109774;1251;59012;-72
2024/03/02 00:12:12;;;;;;;128.30;63.20;;;;;;;1.34;100.00;101564.84;109692;1251;72695;-72
2024/03/02 00:14:40;;;;;;;96.90;56.00;;;;;;;1.35;100.00;101565.36;109502;1251;63544;-72
2024/03/02 00:17:09;;;;;;;103.20;53.00;;;;;;;1.31;100.00;101561.95;109590;1251;72873;-71
2024/03/02 00:19:39;;;;;;;99.10;55.80;;;;;;;1.27;100.00;101553.70;109395;1254;58123;-71
2024/03/02 00:22:07;;;;;;;103.40;56.20;;;;;;;1.24;100.00;101547.52;109657;1251;58956;-71
2024/03/02 00:24:34;;;;;;;85.70;50.30;;;;;;;1.23;100.00;101539.25;109569;1250;73875;-72
2024/03/02 00:27:03;;;;;;;85.60;48.70;;;;;;;1.22;100.00;101537.54;109672;1250;62412;-71
2024/03/02 00:29:31;;;;;;;102.90;51.70;;;;;;;1.17;100.00;101534.14;109566;1251;71260;-72
2024/03/02 00:31:58;;;;;;;88.70;50.10;;;;;;;1.14;100.00;101529.67;109673;1251;60851;-72
2024/03/02 00:34:26;;;;;;;91.40;50.50;;;;;;;1.15;100.00;101526.22;109648;1252;58234;-72
2024/03/02 00:36:53;;;;;;;86.80;50.30;;;;;;;1.15;100.00;101525.36;109667;1250;73964;-72
2024/03/02 00:39:21;;;;;;;95.80;53.80;;;;;;;1.16;100.00;101527.77;109690;1250;62276;-72
2024/03/02 00:41:48;;;;;;;99.10;53.20;;;;;;;1.20;100.00;101528.94;109688;1250;71378;-72
2024/03/02 00:44:16;;;;;;;96.90;53.20;;;;;;;1.24;100.00;101528.23;109639;1253;59311;-73
2024/03/02 00:46:43;;;;;;;97.90;53.60;;;;;;;1.21;100.00;101528.25;109710;1251;60017;-72
2024/03/02 00:51:29;;;;;;;89.90;53.50;;;;;;;1.13;100.00;101519.69;102658;1292;600177;-74
2024/03/02 00:53:59;;;;;;;96.40;53.40;;;;;;;1.06;100.00;101513.53;104712;1274;60320;-73
2024/03/02 00:56:27;;;;;;;86.10;50.90;;;;;;;1.02;100.00;101512.02;104858;1267;60013;-73
2024/03/02 00:58:54;;;;;;;93.10;51.80;;;;;;;1.00;100.00;101509.09;104750;1265;72479;-73
2024/03/02 01:01:22;;;;;;;79.60;40.80;;;;;;;0.95;100.00;101507.91;105394;1260;62599;-73
2024/03/02 01:03:50;;;;;;;76.20;41.80;;;;;;;0.91;100.00;101508.29;105284;1260;71268;-72
2024/03/02 01:06:18;;;;;;;68.00;38.10;;;;;;;0.86;100.00;101514.16;105172;1257;219298;-74
2024/03/02 01:08:50;;;;;;;70.70;36.10;;;;;;;0.81;100.00;101513.50;105339;1257;60322;-74
2024/03/02 01:11:19;;;;;;;76.80;37.90;;;;;;;0.81;100.00;101511.26;105495;1262;72122;-71
2024/03/02 01:13:46;;;;;;;73.20;38.70;;;;;;;0.87;100.00;101504.17;106920;1256;62643;-72
2024/03/02 01:16:14;;;;;;;70.20;38.00;;;;;;;0.94;100.00;101501.38;106197;1257;71263;-72
2024/03/02 01:18:42;;;;;;;60.90;37.20;;;;;;;0.99;100.00;101501.52;105863;1256;60053;-74
2024/03/02 01:21:09;;;;;;;63.20;35.70;;;;;;;1.04;100.00;101496.67;105971;1256;59562;-70
2024/03/02 01:23:36;;;;;;;68.10;37.30;;;;;;;1.10;100.00;101494.39;105957;1256;71956;-72
2024/03/02 01:26:04;;;;;;;62.00;35.90;;;;;;;1.18;100.00;101493.65;107425;1253;62312;-71
2024/03/02 01:28:33;;;;;;;57.10;32.40;;;;;;;1.23;100.00;101494.13;108477;1253;72462;-72
2024/03/02 01:31:02;;;;;;;57.50;34.20;;;;;;;1.25;100.00;101496.52;106819;1255;59682;-73
2024/03/02 01:33:30;;;;;;;54.00;34.20;;;;;;;1.20;100.00;101497.77;105670;1260;59631;-73
2024/03/02 01:35:57;;;;;;;60.30;33.20;;;;;;;1.13;100.00;101499.89;105714;1253;73831;-72
2024/03/02 01:38:25;;;;;;;52.70;32.30;;;;;;;1.12;100.00;101495.25;105601;1253;62302;-75
2024/03/02 01:40:53;;;;;;;49.50;31.00;;;;;;;1.11;100.00;101495.94;105568;1260;72608;-74
2024/03/02 01:43:20;;;;;;;54.40;31.10;;;;;;;1.09;100.00;101497.16;105446;1256;59787;-74
2024/03/02 01:45:48;;;;;;;51.60;27.80;;;;;;;1.08;100.00;101499.06;105623;1260;59639;-72
2024/03/02 01:48:16;;;;;;;51.20;27.90;;;;;;;1.05;100.00;101492.70;105640;1254;72275;-73
2024/03/02 01:50:44;;;;;;;46.80;27.40;;;;;;;1.02;100.00;101488.06;105484;1255;63401;-73
2024/03/02 01:53:11;;;;;;;53.20;27.00;;;;;;;1.02;100.00;101485.30;105642;1257;72671;-72
2024/03/02 01:55:38;;;;;;;42.20;23.30;;;;;;;1.06;100.00;101484.96;105804;1252;60890;-73
2024/03/02 01:58:06;;;;;;;47.60;25.20;;;;;;;1.05;100.00;101481.33;105974;1256;59557;-70
2024/03/02 02:00:34;;;;;;;46.00;24.40;;;;;;;1.02;100.00;101478.61;105661;1252;73954;-73
2024/03/02 02:03:01;;;;;;;46.80;25.00;;;;;;;0.98;100.00;101480.86;105752;1257;62301;-75
2024/03/02 02:05:29;;;;;;;42.30;26.50;;;;;;;0.94;100.00;101480.73;105846;1253;71556;-73
2024/03/02 02:07:58;;;;;;;53.50;28.50;;;;;;;0.96;100.00;101483.98;105693;1253;59804;-74
2024/03/02 02:10:25;;;;;;;49.00;29.40;;;;;;;0.97;100.00;101484.66;105851;1253;60065;-73
2024/03/02 02:12:53;;;;;;;51.80;30.50;;;;;;;0.95;100.00;101480.36;105709;1253;72998;-73
2024/03/02 02:15:25;;;;;;;56.20;31.20;;;;;;;0.93;100.00;101482.10;105823;1253;62242;-73
2024/03/02 02:17:54;;;;;;;53.80;28.40;;;;;;;0.94;100.00;101480.21;105872;1254;72756;-74
2024/03/02 02:20:22;;;;;;;53.30;29.40;;;;;;;0.89;100.00;101481.10;105725;1257;59712;-74
2024/03/02 02:22:57;;;;;;;56.30;30.40;;;;;;;0.83;100.00;101474.59;105738;1252;60042;-72
2024/03/02 02:25:25;;;;;;;50.70;27.60;;;;;;;0.82;100.00;101475.63;105812;1253;73040;-74
2024/03/02 02:27:53;;;;;;;37.60;23.20;;;;;;;0.80;100.00;101475.81;105728;1257;63624;-72
2024/03/02 02:30:25;;;;;;;42.40;22.50;;;;;;;0.79;100.00;101475.83;105829;1253;70614;-75
2024/03/02 02:32:53;;;;;;;36.20;21.60;;;;;;;0.78;100.00;101474.45;105760;1252;61043;-73
2024/03/02 02:35:21;;;;;;;32.90;18.20;;;;;;;0.79;100.00;101475.81;105683;1257;59706;-74
2024/03/02 02:37:49;;;;;;;32.60;18.20;;;;;;;0.85;100.00;101474.92;105922;1252;73019;-73
2024/03/02 02:40:18;;;;;;;32.40;16.50;;;;;;;0.88;100.00;101470.42;105816;1253;62376;-74
2024/03/02 02:42:47;;;;;;;38.30;17.70;;;;;;;0.91;100.00;101467.48;105738;1253;71433;-75
2024/03/02 02:45:15;;;;;;;36.30;16.10;;;;;;;0.93;100.00;101468.33;105702;1253;59682;-73
2024/03/02 02:47:44;;;;;;;35.00;17.90;;;;;;;0.90;100.00;101463.02;105767;1257;59739;-74
2024/03/02 02:50:12;;;;;;;29.00;16.00;;;;;;;0.83;100.00;101466.84;106865;1255;71849;-72
2024/03/02 02:52:41;;;;;;;26.50;15.50;;;;;;;0.73;100.00;101469.48;107047;1252;62773;-73
2024/03/02 02:55:10;;;;;;;34.80;17.80;;;;;;;0.65;100.00;101470.74;105750;1257;72651;-73
2024/03/02 02:57:39;;;;;;;42.80;19.30;;;;;;;0.59;100.00;101468.70;105683;1253;60847;-73
2024/03/02 03:00:14;;;;;;;35.90;17.70;;;;;;;0.57;100.00;101468.88;105801;1253;60179;-72
2024/03/02 03:02:44;;;;;;;35.30;16.70;;;;;;;0.58;100.00;101474.73;105833;1257;72857;-75
2024/03/02 03:05:13;;;;;;;35.00;17.70;;;;;;;0.60;100.00;101475.56;105760;1253;63280;-73
2024/03/02 03:07:41;;;;;;;29.20;18.20;;;;;;;0.66;100.00;101468.84;105850;1253;71425;-71
2024/03/02 03:10:09;;;;;;;31.00;19.10;;;;;;;0.73;100.00;101472.23;105648;1254;59806;-72
2024/03/02 03:12:36;;;;;;;37.30;19.10;;;;;;;0.75;100.00;101472.91;105726;1254;59561;-73
2024/03/02 03:15:04;;;;;;;38.30;23.70;;;;;;;0.79;100.00;101468.25;105621;1252;72264;-75
2024/03/02 03:17:32;;;;;;;40.70;22.40;;;;;;;0.82;100.00;101464.44;105737;1253;62038;-73
2024/03/02 03:20:00;;;;;;;50.50;23.70;;;;;;;0.81;100.00;101460.66;105744;1257;72687;-74
2024/03/02 03:22:28;;;;;;;42.10;23.60;;;;;;;0.77;100.00;101458.28;105877;1257;59935;-74
2024/03/02 03:24:56;;;;;;;39.50;23.30;;;;;;;0.73;100.00;101457.09;105833;1253;61382;-74
2024/03/02 03:27:24;;;;;;;46.70;25.20;;;;;;;0.72;100.00;101458.30;105882;1257;71316;-72
2024/03/02 03:29:51;;;;;;;37.70;23.90;;;;;;;0.71;100.00;101454.88;105760;1255;63506;-73
2024/03/02 03:32:18;;;;;;;43.00;22.60;;;;;;;0.71;100.00;101449.37;105703;1256;72804;-74
2024/03/02 03:34:47;;;;;;;33.50;18.80;;;;;;;0.72;100.00;101444.02;105928;1256;60824;-73
2024/03/02 03:37:15;;;;;;;35.10;20.10;;;;;;;0.68;100.00;101441.98;105858;1253;59994;-73
2024/03/02 03:39:43;;;;;;;42.70;20.60;;;;;;;0.65;100.00;101440.45;105784;1253;73596;-72
2024/03/02 03:42:10;;;;;;;36.40;19.30;;;;;;;0.59;100.00;101444.09;105785;1252;62658;-74
2024/03/02 03:44:40;;;;;;;33.10;16.80;;;;;;;0.55;100.00;101441.02;105748;1253;72441;-73
2024/03/02 03:47:07;;;;;;;27.40;14.90;;;;;;;0.52;100.00;101441.89;105727;1253;60396;-72
2024/03/02 03:49:35;;;;;;;39.80;15.90;;;;;;;0.48;100.00;101438.48;105757;1254;59719;-72
2024/03/02 03:52:04;;;;;;;26.40;15.90;;;;;;;0.45;100.00;101434.71;105734;1252;71938;-73
2024/03/02 03:54:31;;;;;;;31.40;15.90;;;;;;;0.43;100.00;101441.43;105802;1252;62433;-73
2024/03/02 03:56:59;;;;;;;24.90;15.20;;;;;;;0.40;100.00;101447.63;105859;1251;71012;-72
2024/03/02 03:59:26;;;;;;;30.90;14.70;;;;;;;0.39;100.00;101448.16;105733;1255;59706;-73
2024/03/02 04:01:54;;;;;;;29.90;15.00;;;;;;;0.37;100.00;101448.85;105726;1256;59699;-73
2024/03/02 04:04:22;;;;;;;28.50;16.10;;;;;;;0.38;100.00;101450.05;105859;1251;71822;-74
2024/03/02 04:06:50;;;;;;;28.00;13.70;;;;;;;0.42;100.00;101448.48;105771;1251;63547;-74
2024/03/02 04:09:17;;;;;;;31.90;15.20;;;;;;;0.41;100.00;101447.61;105746;1251;71496;-73
2024/03/02 04:11:45;;;;;;;34.70;15.10;;;;;;;0.40;100.00;101447.63;105721;1252;59791;-73
2024/03/02 04:14:12;;;;;;;29.90;15.10;;;;;;;0.42;100.00;101448.14;105773;1257;60010;-73
2024/03/02 04:16:39;;;;;;;32.80;15.60;;;;;;;0.41;100.00;101444.70;105770;1258;73053;-73
2024/03/02 04:19:08;;;;;;;28.70;15.60;;;;;;;0.43;100.00;101438.49;105723;1252;63013;-72
2024/03/02 04:21:36;;;;;;;28.50;15.70;;;;;;;0.44;100.00;101438.67;105850;1253;70232;-75
2024/03/02 04:24:03;;;;;;;32.20;17.00;;;;;;;0.44;100.00;101436.44;105694;1257;59522;-74
2024/03/02 04:26:31;;;;;;;34.00;16.20;;;;;;;0.45;100.00;101438.48;105810;1256;59625;-73
2024/03/02 04:28:58;;;;;;;26.60;15.00;;;;;;;0.44;100.00;101435.75;105778;1253;71750;-72
2024/03/02 04:31:26;;;;;;;27.30;14.60;;;;;;;0.41;100.00;101430.42;105765;1251;62907;-75
2024/03/02 04:33:54;;;;;;;35.60;16.30;;;;;;;0.40;100.00;101435.08;105758;1251;72644;-74
2024/03/02 04:36:21;;;;;;;34.10;15.70;;;;;;;0.37;100.00;101439.21;105760;1253;59720;-73
2024/03/02 04:38:49;;;;;;;23.30;14.10;;;;;;;0.38;100.00;101439.91;105780;1251;60036;-74
2024/03/02 04:41:17;;;;;;;35.30;16.00;;;;;;;0.34;100.00;101439.41;105850;1257;71946;-74
2024/03/02 04:43:44;;;;;;;30.30;14.30;;;;;;;0.30;100.00;101434.26;105797;1258;64206;-73
2024/03/02 04:46:12;;;;;;;38.60;17.20;;;;;;;0.35;100.00;101438.20;105856;1257;72673;-75
2024/03/02 04:48:40;;;;;;;32.60;17.80;;;;;;;0.37;100.00;101433.88;105746;1257;60266;-74
2024/03/02 04:51:08;;;;;;;37.50;17.80;;;;;;;0.35;100.00;101438.20;105920;1253;59755;-75
2024/03/02 04:53:35;;;;;;;28.10;16.40;;;;;;;0.33;100.00;101440.45;105809;1251;73028;-74
2024/03/02 04:58:49;;;;;;;35.60;14.60;;;;;;;0.24;100.00;101442.89;105922;1253;72690;-73
2024/03/02 05:01:17;;;;;;;33.80;14.20;;;;;;;0.20;100.00;101443.23;105939;1257;60518;-71
2024/03/02 05:03:45;;;;;;;31.50;15.70;;;;;;;0.16;100.00;101444.98;105889;1256;60558;-74
2024/03/02 05:06:13;;;;;;;26.40;14.70;;;;;;;0.11;100.00;101443.11;105767;1256;74000;-74
2024/03/02 05:08:40;;;;;;;29.30;15.60;;;;;;;0.08;100.00;101445.70;105850;1251;63556;-75
2024/03/02 05:12:47;;;;;;;30.30;14.90;;;;;;;0.09;100.00;101439.69;105773;1253;72678;-74
2024/03/02 05:14:01;;;;;;;39.10;15.20;;;;;;;0.14;100.00;101432.43;105603;1253;60575;-75
2024/03/02 05:16:28;;;;;;;37.50;17.60;;;;;;;0.21;100.00;101433.10;105766;1257;60882;-74
2024/03/02 05:18:56;;;;;;;34.40;17.50;;;;;;;0.28;100.00;101434.27;105864;1252;73838;-74
2024/03/02 05:21:24;;;;;;;37.30;16.70;;;;;;;0.36;100.00;101427.88;105824;1258;63663;-73
2024/03/02 05:23:51;;;;;;;34.10;16.90;;;;;;;0.48;100.00;101431.26;105861;1257;71145;-76
2024/03/02 05:26:18;;;;;;;32.00;17.10;;;;;;;0.54;100.00;101429.15;105843;1257;60614;-74
2024/03/02 05:28:46;;;;;;;33.80;18.00;;;;;;;0.55;100.00;101427.95;105795;1257;61734;-74
2024/03/02 05:31:16;;;;;;;33.80;15.40;;;;;;;0.58;100.00;101426.89;105750;1251;73889;-74
2024/03/02 05:33:44;;;;;;;27.80;15.40;;;;;;;0.61;100.00;101428.95;109610;1251;63054;-74
2024/03/02 05:36:12;;;;;;;33.40;15.50;;;;;;;0.56;100.00;101425.53;109621;1251;71436;-73
2024/03/02 05:38:39;;;;;;;36.60;15.20;;;;;;;0.53;100.00;101421.59;109580;1251;59691;-72
2024/03/02 05:41:07;;;;;;;31.90;15.30;;;;;;;0.60;100.00;101423.11;109665;1250;58739;-74
2024/03/02 05:43:34;;;;;;;43.90;15.10;;;;;;;0.69;100.00;101423.91;109608;1251;73951;-72
2024/03/02 05:46:02;;;;;;;31.90;14.20;;;;;;;0.71;100.00;101421.83;109686;1251;62572;-72
2024/03/02 05:48:32;;;;;;;24.40;13.00;;;;;;;0.73;100.00;101419.41;109629;1251;71679;-74
2024/03/02 05:50:59;;;;;;;29.00;13.50;;;;;;;0.80;100.00;101415.92;109600;1251;58135;-73
2024/03/02 05:53:27;;;;;;;31.90;13.30;;;;;;;0.92;100.00;101415.66;109630;1253;58760;-73
2024/03/02 05:55:55;;;;;;;30.60;13.50;;;;;;;1.05;100.00;101412.99;109606;1251;73868;-72
2024/03/02 06:00:54;;;;;;;34.60;13.10;;;;;;;1.22;100.00;101411.98;109624;1251;72864;-72
2024/03/02 06:03:22;;;;;;;26.80;14.40;;;;;;;1.27;100.00;101410.38;109627;1253;58153;-73
2024/03/02 06:05:49;;;;;;;33.20;15.50;;;;;;;1.28;100.00;101405.56;109703;1251;58737;-73
2024/03/02 06:08:17;;;;;;;27.90;13.50;;;;;;;1.31;100.00;101404.67;109601;1252;73849;-73
2024/03/02 06:10:45;;;;;;;25.30;13.70;;;;;;;1.40;100.00;101404.58;109631;1251;62789;-74
2024/03/02 06:13:13;;;;;;;27.40;14.30;;;;;;;1.51;100.00;101409.13;109662;1251;71270;-73
2024/03/02 06:15:42;;;;;;;30.40;14.90;;;;;;;1.58;100.00;101405.45;109622;1252;58584;-74
2024/03/02 06:18:10;;;;;;;32.90;15.60;;;;;;;1.64;100.00;101401.06;109657;1252;60199;-73
2024/03/02 06:20:37;;;;;;;30.60;14.80;;;;;;;1.76;100.00;101399.74;109611;1251;73814;-74
2024/03/02 06:23:05;;;;;;;38.40;17.60;;;;;;;1.81;100.00;101402.61;109680;1251;63733;-72
2024/03/02 06:25:32;;;;;;;33.50;16.90;;;;;;;1.71;100.00;101405.64;109635;1251;72679;-72
2024/03/02 06:28:00;;;;;;;44.20;15.40;;;;;;;1.61;100.00;101406.80;109626;1253;58095;-72
2024/03/02 06:30:29;;;;;;;27.00;13.80;;;;;;;1.55;100.00;101406.16;109664;1251;60040;-73
2024/03/02 06:32:57;;;;;;;31.40;13.80;;;;;;;1.50;100.00;101408.46;109580;1251;73809;-72
2024/03/02 06:35:25;;;;;;;30.30;13.30;;;;;;;1.53;100.00;101408.95;109616;1250;62279;-74
2024/03/02 06:37:52;;;;;;;32.60;12.80;;;;;;;1.58;100.00;101407.69;109558;1251;72484;-73
2024/03/02 06:40:19;;;;;;;26.20;13.00;;;;;;;1.67;100.00;101403.97;109606;1253;60956;-73
2024/03/02 06:42:47;;;;;;;30.50;12.80;;;;;;;1.71;100.00;101399.27;109641;1251;60102;-73
2024/03/02 06:45:14;;;;;;;30.50;14.00;;;;;;;1.74;100.00;101397.86;109652;1251;73980;-73
2024/03/02 06:47:42;;;;;;;33.90;13.70;;;;;;;1.85;100.00;101396.52;109674;1251;63659;-74
2024/03/02 06:50:09;;;;;;;32.90;14.20;;;;;;;1.95;100.00;101392.11;109613;1251;71464;-73
2024/03/02 06:52:37;;;;;;;27.10;12.70;;;;;;;2.03;100.00;101393.55;109649;1252;59361;-75
2024/03/02 06:55:06;;;;;;;31.50;14.40;;;;;;;2.07;100.00;101383.85;109653;1251;59992;-73
2024/03/02 06:57:34;;;;;;;33.80;16.10;;;;;;;2.13;100.00;101379.99;109594;1251;71913;-73
2024/03/02 07:00:04;;;;;;;33.60;15.50;;;;;;;2.20;100.00;101379.73;109644;1251;63716;-75
2024/03/02 07:02:32;;;;;;;30.00;15.50;;;;;;;2.24;100.00;101383.11;109583;1251;72702;-72
2024/03/02 07:04:59;;;;;;;28.30;14.70;;;;;;;2.24;100.00;101387.94;109653;1251;58459;-73
2024/03/02 07:07:27;;;;;;;36.10;16.70;;;;;;;2.25;100.00;101386.21;109605;1254;58834;-74
2024/03/02 07:09:54;;;;;;;40.30;15.80;;;;;;;2.30;100.00;101385.98;109649;1251;72561;-73
2024/03/02 07:12:23;;;;;;;26.60;13.50;;;;;;;2.36;100.00;101384.68;109652;1251;63790;-72
2024/03/02 07:17:31;;;;;;;28.60;14.80;;;;;;;2.41;100.00;101386.68;109638;1251;59792;-73
2024/03/02 07:20:01;;;;;;;48.60;15.40;;;;;;;2.39;100.00;101382.56;109629;1251;60097;-72
2024/03/02 07:22:29;;;;;;;30.50;14.40;;;;;;;2.43;100.00;101379.58;109689;1251;74428;-74
2024/03/02 07:24:58;;;;;;;43.10;16.60;;;;;;;2.46;100.00;101374.02;109591;1251;62533;-74
2024/03/02 07:27:26;;;;;;;29.80;13.70;;;;;;;2.57;100.00;101369.91;109615;1251;71036;-73
2024/03/02 07:29:53;;;;;;;25.70;13.10;;;;;;;2.70;100.00;101372.11;109590;1252;59353;-73
2024/03/02 07:32:21;;;;;;;27.30;14.00;;;;;;;2.77;100.00;101371.67;109596;1252;59268;-74
2024/03/02 07:34:48;;;;;;;21.40;14.10;;;;;;;2.78;100.00;101372.85;109732;1251;73995;-75
2024/03/02 07:37:18;;;;;;;25.90;14.40;;;;;;;2.83;100.00;101367.95;109637;1251;65822;-73
2024/03/02 07:39:45;;;;;;;37.10;15.40;;;;;;;2.89;100.00;101364.21;109604;1252;73797;-73
2024/03/02 07:42:13;;;;;;;29.90;14.20;;;;;;;3.00;100.00;101361.78;109613;1253;58561;-73
2024/03/02 07:44:41;;;;;;;26.10;14.00;;;;;;;3.18;100.00;101358.22;109570;1253;58821;-73
2024/03/02 07:47:09;;;;;;;30.50;14.70;;;;;;;3.36;100.00;101355.63;109595;1251;72624;-73
2024/03/02 07:49:36;;;;;;;37.10;18.30;;;;;;;3.51;100.00;101349.48;109641;1251;63609;-73
2024/03/02 07:52:04;;;;;;;36.10;16.10;;;;;;;3.69;100.00;101350.69;109655;1253;72927;-72
2024/03/02 07:54:32;;;;;;;22.50;13.10;;;;;;;3.85;100.00;101352.98;109549;1251;59454;-72
2024/03/02 07:57:01;;;;;;;27.80;13.50;;;;;;;3.88;100.00;101349.61;109674;1251;58980;-72
2024/03/02 07:59:29;;;;;;;28.20;12.40;;;;;;;3.96;100.00;101344.25;109632;1252;72462;-74
2024/03/02 08:01:56;;;;;;;24.40;11.50;;;;;;;4.19;100.00;101347.06;109605;1251;62301;-74
2024/03/02 08:04:24;;;;;;;23.80;12.20;;;;;;;4.43;100.00;101341.00;109604;1251;72642;-73
2024/03/02 08:06:52;;;;;;;37.20;13.30;;;;;;;4.61;100.00;101342.99;109594;1253;58760;-73
2024/03/02 08:09:20;;;;;;;27.90;11.50;;;;;;;4.73;100.00;101337.01;109690;1251;58149;-74
2024/03/02 08:11:48;;;;;;;28.50;10.70;;;;;;;4.85;100.00;101336.00;109642;1253;72552;-75
2024/03/02 08:14:15;;;;;;;22.80;10.70;;;;;;;5.03;100.00;101332.43;109701;1251;62479;-75
2024/03/02 08:16:42;;;;;;;26.30;11.90;;;;;;;5.24;100.00;101333.11;109598;1252;71807;-74
2024/03/02 08:19:10;;;;;;;26.30;13.40;;;;;;;5.41;100.00;101335.98;109592;1253;58137;-73
2024/03/02 08:21:38;;;;;;;29.70;11.00;;;;;;;5.55;100.00;101334.53;109653;1251;58942;-73
2024/03/02 08:24:06;;;;;;;20.90;11.20;;;;;;;5.63;100.00;101336.20;109582;1253;75800;-73
2024/03/02 08:26:35;;;;;;;33.30;11.80;;;;;;;5.67;100.00;101336.13;109589;1251;62901;-75
2024/03/02 08:29:03;;;;;;;22.60;12.10;;;;;;;5.73;100.00;101336.99;109660;1252;71501;-72
2024/03/02 08:31:30;;;;;;;24.90;11.10;;;;;;;5.75;100.00;101329.11;109593;1253;58098;-73
2024/03/02 08:34:00;;;;;;;37.00;11.30;;;;;;;5.66;100.00;101331.98;109633;1251;58782;-72
2024/03/02 08:36:31;;;;;;;16.80;10.70;;;;;;;5.49;100.00;101323.08;109608;1251;73938;-74
2024/03/02 08:38:59;;;;;;;27.20;10.10;;;;;;;5.43;100.00;101323.25;109640;1251;63892;-73
2024/03/02 08:41:27;;;;;;;28.50;11.20;;;;;;;5.45;100.00;101322.31;109447;1251;71424;-75
2024/03/02 08:43:55;;;;;;;30.60;10.10;;;;;;;5.51;100.00;101318.36;109582;1253;58317;-73
2024/03/02 08:46:22;;;;;;;25.80;11.90;;;;;;;5.74;100.00;101315.98;109637;1251;60044;-74
2024/03/02 08:48:50;;;;;;;27.80;11.00;;;;;;;5.99;100.00;101316.98;109664;1251;74571;-72
2024/03/02 08:51:17;;;;;;;21.80;10.60;;;;;;;6.21;100.00;101314.59;109619;1251;62643;-73
2024/03/02 08:53:45;;;;;;;26.60;11.00;;;;;;;6.39;100.00;101315.98;109556;1251;72487;-73
2024/03/02 08:56:13;;;;;;;22.00;11.20;;;;;;;6.59;100.00;101313.58;109596;1253;59239;-74
2024/03/02 08:58:40;;;;;;;35.70;12.30;;;;;;;6.72;100.00;101314.03;109618;1250;58784;-72
2024/03/02 09:01:08;;;;;;;21.00;10.80;;;;;;;6.77;100.00;101315.77;109585;1251;73842;-74
2024/03/02 09:03:35;;;;;;;28.40;11.90;;;;;;;6.93;100.00;101315.41;109626;1251;63623;-72
2024/03/02 09:06:03;;;;;;;25.20;11.40;;;;;;;7.22;100.00;101312.88;109576;1251;72689;-74
2024/03/02 09:08:31;;;;;;;24.50;11.50;;;;;;;7.50;99.88;101307.52;109599;1253;58121;-73
2024/03/02 09:10:58;;;;;;;23.40;11.60;;;;;;;7.73;95.47;101309.63;109650;1252;60039;-75
2024/03/02 09:13:26;;;;;;;18.70;9.80;;;;;;;7.83;88.72;101316.75;109672;1251;72930;-74
2024/03/02 09:15:53;;;;;;;25.60;11.20;;;;;;;7.82;85.59;101315.91;109600;1251;62450;-74
2024/03/02 09:18:22;;;;;;;25.30;10.70;;;;;;;7.76;86.88;101311.12;109652;1251;72558;-74
2024/03/02 09:20:53;;;;;;;26.10;11.10;;;;;;;7.74;88.03;101306.48;109648;1253;58123;-73
2024/03/02 09:23:21;;;;;;;25.10;12.80;;;;;;;7.73;87.69;101303.56;109624;1251;58506;-74
2024/03/02 09:25:48;;;;;;;30.20;11.70;;;;;;;7.77;89.71;101300.98;109588;1256;72403;-74
2024/03/02 09:28:16;;;;;;;39.70;14.70;;;;;;;8.04;90.16;101301.70;109594;1255;63003;-75
2024/03/02 09:30:44;;;;;;;32.30;13.80;;;;;;;8.33;83.74;101304.90;109650;1251;72671;-73
2024/03/02 09:33:11;;;;;;;28.20;12.90;;;;;;;8.42;79.99;101302.14;109645;1256;60109;-73
2024/03/02 09:35:42;;;;;;;24.10;12.20;;;;;;;8.49;77.62;101299.77;109604;1251;60091;-73
2024/03/02 09:38:09;;;;;;;29.70;12.10;;;;;;;8.45;75.73;101301.33;109623;1251;74333;-74
2024/03/02 09:40:36;;;;;;;24.10;10.60;;;;;;;8.40;76.97;101299.62;109629;1251;63563;-74
2024/03/02 09:43:04;;;;;;;26.40;11.40;;;;;;;8.35;77.57;101295.97;109599;1254;72504;-73
2024/03/02 09:45:31;;;;;;;25.10;10.60;;;;;;;8.32;77.96;101292.95;109132;1251;59054;-73
2024/03/02 09:47:59;;;;;;;25.80;10.90;;;;;;;8.37;78.82;101291.54;109659;1251;60061;-73
2024/03/02 09:50:27;;;;;;;33.70;12.40;;;;;;;8.47;77.38;101284.19;109602;1251;72275;-73
2024/03/02 09:52:54;;;;;;;26.20;11.10;;;;;;;8.48;76.78;101282.39;109596;1253;63844;-74
2024/03/02 09:55:22;;;;;;;27.20;12.00;;;;;;;8.46;76.76;101282.28;109643;1253;74835;-73
2024/03/02 09:57:50;;;;;;;35.20;12.60;;;;;;;8.42;75.72;101278.27;109549;1254;59287;-75
2024/03/02 10:00:18;;;;;;;28.40;11.70;;;;;;;8.33;77.18;101273.23;109608;1253;60015;-74
2024/03/02 10:02:48;;;;;;;33.20;13.40;;;;;;;8.32;78.50;101269.08;109601;1253;76043;-75
2024/03/02 10:05:35;;;;;;;23.30;11.80;;;;;;;8.35;78.69;101265.80;109646;1253;65584;-73
2024/03/02 10:08:02;;;;;;;30.80;12.00;;;;;;;8.50;77.68;101266.46;109583;1256;72417;-76
2024/03/02 10:10:39;;;;;;;28.90;11.70;;;;;;;8.54;75.86;101260.56;109579;1253;59461;-75
2024/03/02 10:13:07;;;;;;;23.20;11.10;;;;;;;8.57;75.68;101259.88;109664;1253;58756;-75
2024/03/02 10:15:37;;;;;;;22.40;10.50;;;;;;;8.61;74.97;101261.47;109603;1254;73116;-75
2024/03/02 10:18:06;;;;;;;27.00;10.20;;;;;;;8.63;74.34;101256.33;109562;1253;64453;-73
2024/03/02 10:20:34;;;;;;;23.90;10.80;;;;;;;8.66;74.10;101253.61;109414;1253;71247;-74
2024/03/02 10:23:12;;;;;;;25.70;11.20;;;;;;;8.61;74.21;101248.92;109600;1253;60158;-74
2024/03/02 10:25:40;;;;;;;33.10;12.30;;;;;;;8.60;76.22;101246.88;109621;1253;60010;-75
2024/03/02 10:28:22;;;;;;;25.30;10.70;;;;;;;8.72;75.14;101249.17;109611;1252;73789;-73
2024/03/02 10:30:51;;;;;;;22.80;10.80;;;;;;;8.76;74.75;101242.72;109616;1252;64131;-74
2024/03/02 10:33:18;;;;;;;23.00;10.60;;;;;;;8.80;74.49;101243.43;109631;1253;72965;-74
2024/03/02 10:35:48;;;;;;;32.40;12.90;;;;;;;8.91;75.10;101241.92;109553;1253;60485;-74
2024/03/02 10:38:17;;;;;;;26.60;11.10;;;;;;;9.01;73.76;101234.13;109568;1251;58751;-74
2024/03/02 10:40:48;;;;;;;18.60;11.00;;;;;;;9.01;73.80;101236.41;109626;1253;73984;-73
2024/03/02 10:43:16;;;;;;;31.10;10.60;;;;;;;9.05;72.84;101237.81;109610;1255;63580;-73
2024/03/02 10:45:44;;;;;;;25.20;13.30;;;;;;;8.99;73.39;101235.63;109509;1254;72464;-74
2024/03/02 10:48:11;;;;;;;30.80;12.00;;;;;;;8.95;74.14;101235.62;109563;1252;62318;-74
2024/03/02 10:50:39;;;;;;;32.50;10.80;;;;;;;9.00;74.90;101239.96;109466;1255;60294;-73
2024/03/02 10:53:07;;;;;;;28.10;11.90;;;;;;;9.12;74.67;101235.60;109650;1251;73914;-75
2024/03/02 10:55:36;;;;;;;27.60;11.10;;;;;;;9.23;73.18;101237.18;109629;1251;63796;-72
2024/03/02 10:58:06;;;;;;;24.20;11.00;;;;;;;9.28;71.89;101230.15;109465;1251;72490;-74
2024/03/02 11:00:34;;;;;;;26.30;10.70;;;;;;;9.22;71.30;101225.20;109625;1251;61078;-72
2024/03/02 11:03:05;;;;;;;27.00;9.80;;;;;;;9.14;72.11;101224.16;109452;1251;61408;-73
2024/03/02 11:05:35;;;;;;;26.20;10.80;;;;;;;9.11;74.05;101221.49;109656;1251;73927;-74
2024/03/02 11:08:07;;;;;;;32.00;9.50;;;;;;;9.28;73.83;101217.96;109614;1251;65484;-74
2024/03/02 11:10:39;;;;;;;28.10;9.50;;;;;;;9.47;72.12;101219.20;109640;1251;73176;-74
2024/03/02 11:13:11;;;;;;;20.70;8.00;;;;;;;9.66;69.02;101216.40;109580;1251;59513;-74
2024/03/02 11:15:43;;;;;;;27.00;8.40;;;;;;;9.70;67.41;101213.05;109568;1251;61950;-74
2024/03/02 11:18:12;;;;;;;13.90;6.50;;;;;;;9.72;67.81;101215.77;109648;1250;72835;-75